createdAt,value
2023-03-27T00:01:13.135Z,5.43
2023-03-27T00:03:40.737Z,5.80
2023-03-27T00:06:11.287Z,5.80
2023-03-27T00:08:38.385Z,6.00
2023-03-27T00:11:07.112Z,6.20
2023-03-27T00:13:36.337Z,5.77
2023-03-27T00:16:16.439Z,7.00
2023-03-27T00:18:44.783Z,5.97
2023-03-27T00:21:11.469Z,7.43
2023-03-27T00:23:38.131Z,7.10
2023-03-27T00:26:05.444Z,7.20
2023-03-27T00:28:32.340Z,8.70
2023-03-27T00:30:59.364Z,8.83
2023-03-27T00:33:27.060Z,7.97
2023-03-27T00:35:54.246Z,10.53
2023-03-27T00:38:21.422Z,7.27
2023-03-27T00:40:49.214Z,9.03
2023-03-27T00:43:26.108Z,9.70
2023-03-27T00:46:02.608Z,7.90
2023-03-27T00:48:33.284Z,11.33
2023-03-27T00:51:00.770Z,9.57
2023-03-27T00:53:29.970Z,10.43
2023-03-27T00:56:01.557Z,10.80
2023-03-27T00:58:59.737Z,12.20
2023-03-27T01:01:29.075Z,9.90
2023-03-27T01:03:59.464Z,9.10
2023-03-27T01:06:26.686Z,10.03
2023-03-27T01:08:53.336Z,13.60
2023-03-27T01:11:49.078Z,15.90
2023-03-27T01:14:27.176Z,12.63
2023-03-27T01:17:35.556Z,10.03
2023-03-27T01:20:04.307Z,14.23
2023-03-27T01:23:09.191Z,8.20
2023-03-27T01:25:57.855Z,10.23
2023-03-27T01:28:34.825Z,7.83
2023-03-27T01:31:26.046Z,9.50
2023-03-27T01:34:20.495Z,7.60
2023-03-27T01:37:09.650Z,9.00
2023-03-27T01:39:45.948Z,9.77
2023-03-27T01:42:48.099Z,11.47
2023-03-27T01:45:25.828Z,9.73
2023-03-27T01:48:07.475Z,11.97
2023-03-27T01:51:00.632Z,10.27
2023-03-27T01:53:39.806Z,10.67
2023-03-27T01:56:13.592Z,9.90
2023-03-27T01:58:46.591Z,10.90
2023-03-27T02:01:18.622Z,13.30
2023-03-27T02:03:48.764Z,10.97
2023-03-27T02:06:29.616Z,11.43
2023-03-27T02:09:09.714Z,10.30
2023-03-27T02:11:43.930Z,10.20
2023-03-27T02:14:26.835Z,10.80
2023-03-27T02:16:58.204Z,10.53
2023-03-27T02:19:37.898Z,10.33
2023-03-27T02:22:04.591Z,9.60
2023-03-27T02:24:31.205Z,10.10
2023-03-27T02:27:41.388Z,10.33
2023-03-27T02:30:17.363Z,8.93
2023-03-27T02:32:55.258Z,10.30
2023-03-27T02:35:46.097Z,9.57
2023-03-27T02:38:17.439Z,8.83
2023-03-27T02:41:18.909Z,9.13
2023-03-27T02:44:17.906Z,10.10
2023-03-27T02:46:52.021Z,10.87
2023-03-27T02:49:24.190Z,10.67
2023-03-27T02:52:01.079Z,11.40
2023-03-27T02:54:34.305Z,9.80
2023-03-27T02:57:06.831Z,10.83
2023-03-27T02:59:42.390Z,10.77
2023-03-27T03:02:14.329Z,11.60
2023-03-27T03:04:46.436Z,10.07
2023-03-27T03:07:14.292Z,10.00
2023-03-27T03:09:41.607Z,9.63
2023-03-27T03:12:08.954Z,10.40
2023-03-27T03:14:39.122Z,11.23
2023-03-27T03:17:06.105Z,10.67
2023-03-27T03:19:32.786Z,18.60
2023-03-27T03:21:59.392Z,10.33
2023-03-27T03:24:27.588Z,10.37
2023-03-27T03:26:54.274Z,10.53
2023-03-27T03:29:21.122Z,9.43
2023-03-27T03:31:48.516Z,10.97
2023-03-27T03:34:18.603Z,9.80
2023-03-27T03:36:49.995Z,10.83
2023-03-27T03:39:18.421Z,10.57
2023-03-27T03:41:45.220Z,10.67
2023-03-27T03:44:11.821Z,10.90
2023-03-27T03:46:38.821Z,12.20
2023-03-27T03:49:06.746Z,11.27
2023-03-27T03:51:34.493Z,11.23
2023-03-27T03:54:01.948Z,11.27
2023-03-27T03:56:30.557Z,10.73
2023-03-27T03:58:57.692Z,12.00
2023-03-27T04:01:26.079Z,11.40
2023-03-27T04:03:52.900Z,11.90
2023-03-27T04:06:26.328Z,11.80
2023-03-27T04:08:53.385Z,11.70
2023-03-27T04:11:20.128Z,11.20
2023-03-27T04:13:46.775Z,11.90
2023-03-27T04:16:13.478Z,25.63
2023-03-27T04:18:41.325Z,14.60
2023-03-27T04:21:14.338Z,13.47
2023-03-27T04:23:43.147Z,12.20
2023-03-27T04:26:12.182Z,12.37
2023-03-27T04:28:39.984Z,11.53
2023-03-27T04:31:08.539Z,10.83
2023-03-27T04:33:39.355Z,10.93
2023-03-27T04:36:08.372Z,11.83
2023-03-27T04:38:36.966Z,11.50
2023-03-27T04:41:04.701Z,11.10
2023-03-27T04:43:31.579Z,10.67
2023-03-27T04:45:58.206Z,12.67
2023-03-27T04:48:24.938Z,11.63
2023-03-27T04:50:51.874Z,12.10
2023-03-27T04:53:23.355Z,11.50
2023-03-27T04:55:53.124Z,11.53
2023-03-27T04:58:19.750Z,11.23
2023-03-27T05:00:50.444Z,12.80
2023-03-27T05:03:20.637Z,10.87
2023-03-27T05:05:49.653Z,11.90
2023-03-27T05:08:17.029Z,11.93
2023-03-27T05:10:44.775Z,12.43
2023-03-27T05:13:11.678Z,11.03
2023-03-27T05:15:39.049Z,12.00
2023-03-27T05:18:07.193Z,11.17
2023-03-27T05:20:35.320Z,12.17
2023-03-27T05:23:02.433Z,12.20
2023-03-27T05:25:30.864Z,11.57
2023-03-27T05:27:57.960Z,11.03
2023-03-27T05:30:26.641Z,18.60
2023-03-27T05:32:53.751Z,12.03
2023-03-27T05:35:23.286Z,11.43
2023-03-27T05:37:52.717Z,11.77
2023-03-27T05:40:25.441Z,11.07
2023-03-27T05:42:52.979Z,12.17
2023-03-27T05:45:20.611Z,11.93
2023-03-27T05:47:52.502Z,12.13
2023-03-27T05:50:21.580Z,11.80
2023-03-27T05:52:53.981Z,12.07
2023-03-27T05:55:20.870Z,12.00
2023-03-27T05:57:47.467Z,11.63
2023-03-27T06:00:16.726Z,11.60
2023-03-27T06:02:44.902Z,11.30
2023-03-27T06:05:16.679Z,11.37
2023-03-27T06:07:44.673Z,11.87
2023-03-27T06:10:14.505Z,11.97
2023-03-27T06:12:42.645Z,11.47
2023-03-27T06:15:10.763Z,11.60
2023-03-27T06:17:40.408Z,13.00
2023-03-27T06:20:12.932Z,11.83
2023-03-27T06:22:44.137Z,12.20
2023-03-27T06:25:10.913Z,12.17
2023-03-27T06:27:37.882Z,12.67
2023-03-27T06:30:05.133Z,12.37
2023-03-27T06:32:31.757Z,18.27
2023-03-27T06:34:58.420Z,12.07
2023-03-27T06:37:25.056Z,13.47
2023-03-27T06:39:52.073Z,13.27
2023-03-27T06:42:18.775Z,13.47
2023-03-27T06:44:45.463Z,11.90
2023-03-27T06:47:12.938Z,13.30
2023-03-27T06:49:39.879Z,12.00
2023-03-27T06:52:06.892Z,13.20
2023-03-27T06:54:33.799Z,12.60
2023-03-27T06:57:01.498Z,12.13
2023-03-27T06:59:28.281Z,12.20
2023-03-27T07:01:55.093Z,11.83
2023-03-27T07:04:21.738Z,11.90
2023-03-27T07:06:48.963Z,12.60
2023-03-27T07:09:16.137Z,12.63
2023-03-27T07:11:42.979Z,12.80
2023-03-27T07:14:09.627Z,12.60
2023-03-27T07:16:36.456Z,12.70
2023-03-27T07:19:05.214Z,12.87
2023-03-27T07:21:32.052Z,12.00
2023-03-27T07:23:59.093Z,13.50
2023-03-27T07:26:25.882Z,12.90
2023-03-27T07:28:52.586Z,11.47
2023-03-27T07:31:35.108Z,11.90
2023-03-27T07:34:08.387Z,12.67
2023-03-27T07:36:36.365Z,13.17
2023-03-27T07:39:03.711Z,12.83
2023-03-27T07:41:30.436Z,12.43
2023-03-27T07:43:57.423Z,12.37
2023-03-27T07:46:24.253Z,12.43
2023-03-27T07:48:51.249Z,12.97
2023-03-27T07:51:18.320Z,11.87
2023-03-27T07:53:44.932Z,12.37
2023-03-27T07:56:11.586Z,11.40
2023-03-27T07:58:38.248Z,12.10
2023-03-27T08:01:05.924Z,13.03
2023-03-27T08:03:32.712Z,11.77
2023-03-27T08:06:01.033Z,12.67
2023-03-27T08:08:28.207Z,13.17
2023-03-27T08:10:56.880Z,13.57
2023-03-27T08:13:23.959Z,12.57
2023-03-27T08:15:50.716Z,12.87
2023-03-27T08:18:17.334Z,13.33
2023-03-27T08:20:45.561Z,12.93
2023-03-27T08:23:13.030Z,13.97
2023-03-27T08:25:39.884Z,12.53
2023-03-27T08:28:07.117Z,13.20
2023-03-27T08:30:35.218Z,14.47
2023-03-27T08:33:02.334Z,12.40
2023-03-27T08:35:29.067Z,13.27
2023-03-27T08:37:55.713Z,12.90
2023-03-27T08:40:27.994Z,15.77
2023-03-27T08:43:00.103Z,15.10
2023-03-27T08:45:31.721Z,14.33
2023-03-27T08:48:07.238Z,12.93
2023-03-27T08:50:40.936Z,12.40
2023-03-27T08:53:19.871Z,13.27
2023-03-27T08:55:46.844Z,13.00
2023-03-27T08:58:18.817Z,13.63
2023-03-27T09:00:56.453Z,13.57
2023-03-27T09:03:35.187Z,13.23
2023-03-27T09:06:11.547Z,13.60
2023-03-27T09:08:50.885Z,13.33
2023-03-27T09:11:40.622Z,14.23
2023-03-27T09:14:27.121Z,13.00
2023-03-27T09:16:56.782Z,13.37
2023-03-27T09:19:58.762Z,14.00
2023-03-27T09:22:29.718Z,13.40
2023-03-27T09:25:02.442Z,13.53
2023-03-27T09:27:32.842Z,13.07
2023-03-27T09:30:11.675Z,13.43
2023-03-27T09:32:39.357Z,13.43
2023-03-27T09:35:06.280Z,14.37
2023-03-27T09:37:34.114Z,13.17
2023-03-27T09:40:07.359Z,13.80
2023-03-27T09:42:38.797Z,13.20
2023-03-27T09:45:08.011Z,13.67
2023-03-27T09:47:39.597Z,13.80
2023-03-27T09:50:28.579Z,13.77
2023-03-27T09:53:19.035Z,13.47
2023-03-27T09:55:54.660Z,13.67
2023-03-27T09:58:46.863Z,13.60
2023-03-27T10:01:16.050Z,13.10
2023-03-27T10:03:54.450Z,13.10
2023-03-27T10:06:39.409Z,13.10
2023-03-27T10:09:22.585Z,13.27
2023-03-27T10:11:51.134Z,12.23
2023-03-27T10:14:20.640Z,12.63
2023-03-27T10:16:48.084Z,12.80
2023-03-27T10:19:29.377Z,13.47
2023-03-27T10:22:00.031Z,13.03
2023-03-27T10:24:28.307Z,12.10
2023-03-27T10:27:01.056Z,11.80
2023-03-27T10:29:32.208Z,12.17
2023-03-27T10:32:00.618Z,12.20
2023-03-27T10:34:28.732Z,12.97
2023-03-27T10:36:55.950Z,12.70
2023-03-27T10:39:28.294Z,12.87
2023-03-27T10:41:56.144Z,12.87
2023-03-27T10:44:27.240Z,13.00
2023-03-27T10:46:54.488Z,12.87
2023-03-27T10:49:37.129Z,12.83
2023-03-27T10:52:23.024Z,12.87
2023-03-27T10:54:51.205Z,12.40
2023-03-27T10:57:24.239Z,12.53
2023-03-27T11:00:07.241Z,12.40
2023-03-27T11:02:43.613Z,12.33
2023-03-27T11:05:13.938Z,12.93
2023-03-27T11:07:49.330Z,12.70
2023-03-27T11:10:21.537Z,12.47
2023-03-27T11:13:05.986Z,12.30
2023-03-27T11:15:46.440Z,11.87
2023-03-27T11:18:27.055Z,12.33
2023-03-27T11:21:01.472Z,12.43
2023-03-27T11:23:36.853Z,12.33
2023-03-27T11:26:06.034Z,12.43
2023-03-27T11:28:53.008Z,12.40
2023-03-27T11:31:40.892Z,12.43
2023-03-27T11:34:28.775Z,11.97
2023-03-27T11:37:05.688Z,11.90
2023-03-27T11:39:44.806Z,12.13
2023-03-27T11:42:16.443Z,11.70
2023-03-27T11:44:43.504Z,12.07
2023-03-27T11:47:10.102Z,12.47
2023-03-27T11:50:13.782Z,12.03
2023-03-27T11:52:59.431Z,12.87
2023-03-27T11:55:39.279Z,12.03
2023-03-27T11:58:11.947Z,12.07
2023-03-27T12:04:06.688Z,12.20
2023-03-27T12:06:43.501Z,11.43
2023-03-27T12:09:10.312Z,11.40
2023-03-27T12:11:43.302Z,11.20
2023-03-27T12:14:40.562Z,11.80
2023-03-27T12:17:26.416Z,11.40
2023-03-27T12:20:19.170Z,11.90
2023-03-27T12:23:03.986Z,11.67
2023-03-27T12:25:56.425Z,8.17
2023-03-27T12:28:52.988Z,7.00
2023-03-27T12:31:41.828Z,7.43
2023-03-27T12:34:37.465Z,7.63
2023-03-27T12:37:05.800Z,8.30
2023-03-27T12:39:44.054Z,9.60
2023-03-27T12:42:15.276Z,10.83
2023-03-27T12:45:12.504Z,10.60
2023-03-27T12:47:39.140Z,11.00
2023-03-27T12:50:19.365Z,10.90
2023-03-27T12:52:46.690Z,10.80
2023-03-27T12:55:13.663Z,10.73
2023-03-27T12:57:45.198Z,10.83
2023-03-27T13:00:25.458Z,11.30
2023-03-27T13:03:28.419Z,11.27
2023-03-27T13:06:22.660Z,11.97
2023-03-27T13:08:59.460Z,11.60
2023-03-27T13:11:49.428Z,11.90
2023-03-27T13:14:40.861Z,11.80
2023-03-27T13:17:45.213Z,12.00
2023-03-27T13:20:37.237Z,11.70
2023-03-27T13:23:22.241Z,11.50
2023-03-27T13:26:03.225Z,11.60
2023-03-27T13:28:36.526Z,11.60
2023-03-27T13:31:05.941Z,11.53
2023-03-27T13:34:14.647Z,11.43
2023-03-27T13:36:46.533Z,11.20
2023-03-27T13:39:24.593Z,11.47
2023-03-27T13:42:05.223Z,11.30
2023-03-27T13:44:48.316Z,11.03
2023-03-27T13:47:36.280Z,12.13
2023-03-27T13:50:18.869Z,10.90
2023-03-27T13:53:23.866Z,10.43
2023-03-27T13:55:59.775Z,10.30
2023-03-27T13:58:52.182Z,10.87
2023-03-27T14:01:25.281Z,11.07
2023-03-27T14:04:07.130Z,11.20
2023-03-27T14:06:55.717Z,10.47
2023-03-27T14:09:47.350Z,11.13
2023-03-27T14:12:30.781Z,11.07
2023-03-27T14:15:21.024Z,11.67
2023-03-27T14:18:17.980Z,11.53
2023-03-27T14:20:56.715Z,11.27
2023-03-27T14:23:32.372Z,12.10
2023-03-27T14:26:03.671Z,12.23
2023-03-27T14:28:51.544Z,11.83
2023-03-27T14:31:19.670Z,12.20
2023-03-27T14:34:04.404Z,12.00
2023-03-27T14:36:42.072Z,11.73
2023-03-27T14:39:22.004Z,11.57
2023-03-27T14:41:53.832Z,12.00
2023-03-27T14:44:21.346Z,11.40
2023-03-27T14:46:50.942Z,11.80
2023-03-27T14:49:35.788Z,11.33
2023-03-27T14:52:04.391Z,12.10
2023-03-27T14:54:34.885Z,12.03
2023-03-27T14:57:09.223Z,12.40
2023-03-27T14:59:39.628Z,12.10
2023-03-27T15:02:23.134Z,12.40
2023-03-27T15:04:50.239Z,12.30
2023-03-27T15:07:28.439Z,12.57
2023-03-27T15:10:24.307Z,12.40
2023-03-27T15:12:51.527Z,12.30
2023-03-27T15:15:39.753Z,11.80
2023-03-27T15:18:41.957Z,12.43
2023-03-27T15:21:19.947Z,12.00
2023-03-27T15:24:01.502Z,11.50
2023-03-27T15:26:34.979Z,11.53
2023-03-27T15:29:13.715Z,11.90
2023-03-27T15:31:47.381Z,12.00
2023-03-27T15:34:25.261Z,11.90
2023-03-27T15:36:57.020Z,12.10
2023-03-27T15:39:24.602Z,12.10
2023-03-27T15:41:53.674Z,11.70
2023-03-27T15:44:22.764Z,11.87
2023-03-27T15:46:56.031Z,12.83
2023-03-27T15:49:43.735Z,12.60
2023-03-27T15:52:31.565Z,11.97
2023-03-27T15:54:59.596Z,11.47
2023-03-27T15:57:29.499Z,12.10
2023-03-27T16:00:02.039Z,11.67
2023-03-27T16:02:29.359Z,12.07
2023-03-27T16:04:58.062Z,12.10
2023-03-27T16:07:47.175Z,11.50
2023-03-27T16:10:28.442Z,12.37
2023-03-27T16:13:03.218Z,12.53
2023-03-27T16:15:34.150Z,12.10
2023-03-27T16:18:17.901Z,12.17
2023-03-27T16:20:44.899Z,11.90
2023-03-27T16:23:11.837Z,12.40
2023-03-27T16:25:41.194Z,12.07
2023-03-27T16:28:09.860Z,12.17
2023-03-27T16:30:39.332Z,11.60
2023-03-27T16:33:17.435Z,11.00
2023-03-27T16:35:45.485Z,11.67
2023-03-27T16:38:13.878Z,11.90
2023-03-27T16:40:40.725Z,11.53
2023-03-27T16:43:07.626Z,12.10
2023-03-27T16:45:34.748Z,12.83
2023-03-27T16:48:01.815Z,11.73
2023-03-27T16:50:30.914Z,11.70
2023-03-27T16:52:57.787Z,12.17
2023-03-27T16:55:25.036Z,11.90
2023-03-27T16:57:54.043Z,11.83
2023-03-27T17:00:21.277Z,11.70
2023-03-27T17:02:48.131Z,12.07
2023-03-27T17:05:16.052Z,12.30
2023-03-27T17:07:43.970Z,14.10
2023-03-27T17:10:10.759Z,12.70
2023-03-27T17:12:38.850Z,11.90
2023-03-27T17:15:06.290Z,12.20
2023-03-27T17:17:33.005Z,13.40
2023-03-27T17:20:00.586Z,12.30
2023-03-27T17:22:29.728Z,12.07
2023-03-27T17:24:57.940Z,12.40
2023-03-27T17:27:26.591Z,11.50
2023-03-27T17:29:55.656Z,11.90
2023-03-27T17:32:22.638Z,11.73
2023-03-27T17:34:50.873Z,12.00
2023-03-27T17:37:18.343Z,12.03
2023-03-27T17:39:44.928Z,12.27
2023-03-27T17:42:11.527Z,11.53
2023-03-27T17:44:38.168Z,12.30
2023-03-27T17:47:04.994Z,12.03
2023-03-27T17:49:31.857Z,11.93
2023-03-27T17:51:58.466Z,12.07
2023-03-27T17:54:25.270Z,11.93
2023-03-27T17:56:52.279Z,12.23
2023-03-27T17:59:20.864Z,12.33
2023-03-27T18:01:47.523Z,12.20
2023-03-27T18:04:14.151Z,12.50
2023-03-27T18:06:40.909Z,12.00
2023-03-27T18:09:09.636Z,12.27
2023-03-27T18:11:36.711Z,12.00
2023-03-27T18:14:03.766Z,12.80
2023-03-27T18:16:30.604Z,12.10
2023-03-27T18:18:57.817Z,13.30
2023-03-27T18:21:24.868Z,12.90
2023-03-27T18:23:53.447Z,11.73
2023-03-27T18:26:20.593Z,12.50
2023-03-27T18:28:47.303Z,12.37
2023-03-27T18:31:15.172Z,12.30
2023-03-27T18:33:41.857Z,12.03
2023-03-27T18:36:11.192Z,12.40
2023-03-27T18:38:40.166Z,11.87
2023-03-27T18:41:07.370Z,11.90
2023-03-27T18:43:34.206Z,12.60
2023-03-27T18:46:04.192Z,12.37
2023-03-27T18:48:31.451Z,12.17
2023-03-27T18:51:00.896Z,12.10
2023-03-27T18:53:28.098Z,12.57
2023-03-27T18:55:54.986Z,12.60
2023-03-27T18:58:26.646Z,13.00
2023-03-27T19:00:54.666Z,12.27
2023-03-27T19:03:23.493Z,12.13
2023-03-27T19:05:51.808Z,12.37
2023-03-27T19:08:21.028Z,12.43
2023-03-27T19:10:47.753Z,12.47
2023-03-27T19:13:14.503Z,12.40
2023-03-27T19:15:41.993Z,12.87
2023-03-27T19:18:09.199Z,12.47
2023-03-27T19:20:36.274Z,13.20
2023-03-27T19:23:03.202Z,13.33
2023-03-27T19:25:30.041Z,12.97
2023-03-27T19:27:57.072Z,12.47
2023-03-27T19:30:23.896Z,12.20
2023-03-27T19:32:51.642Z,12.97
2023-03-27T19:35:19.735Z,12.77
2023-03-27T19:37:47.178Z,11.67
2023-03-27T19:40:15.286Z,12.60
2023-03-27T19:42:41.983Z,11.77
2023-03-27T19:45:09.060Z,12.90
2023-03-27T19:47:36.074Z,12.67
2023-03-27T19:50:03.236Z,12.70
2023-03-27T19:52:30.552Z,12.60
2023-03-27T19:54:57.219Z,12.90
2023-03-27T19:57:23.960Z,13.03
2023-03-27T19:59:51.137Z,13.20
2023-03-27T20:02:17.801Z,12.70
2023-03-27T20:04:44.654Z,12.17
2023-03-27T20:07:11.547Z,12.60
2023-03-27T20:09:38.230Z,12.73
2023-03-27T20:12:05.810Z,13.60
2023-03-27T20:14:32.529Z,12.60
2023-03-27T20:16:59.240Z,13.03
2023-03-27T20:19:30.686Z,13.20
2023-03-27T20:21:57.767Z,13.07
2023-03-27T20:24:24.692Z,13.07
2023-03-27T20:26:54.769Z,12.50
2023-03-27T20:29:23.172Z,12.20
2023-03-27T20:31:50.179Z,12.40
2023-03-27T20:34:22.236Z,11.77
2023-03-27T20:36:53.124Z,12.27
2023-03-27T20:39:20.949Z,12.87
2023-03-27T20:41:47.930Z,11.70
2023-03-27T20:44:17.374Z,11.33
2023-03-27T20:46:47.706Z,11.27
2023-03-27T20:51:57.638Z,11.30
2023-03-27T20:54:24.264Z,11.33
2023-03-27T20:56:50.988Z,11.57
2023-03-27T20:59:17.875Z,11.30
2023-03-27T21:01:44.542Z,10.90
2023-03-27T21:04:13.449Z,10.93
2023-03-27T21:06:41.505Z,10.47
2023-03-27T21:09:09.304Z,10.40
2023-03-27T21:11:36.667Z,11.33
2023-03-27T21:14:03.475Z,10.40
2023-03-27T21:16:30.373Z,10.70
2023-03-27T21:18:57.053Z,10.40
2023-03-27T21:21:23.793Z,12.00
2023-03-27T21:23:51.487Z,11.20
2023-03-27T21:26:18.171Z,11.10
2023-03-27T21:28:44.813Z,10.80
2023-03-27T21:31:12.237Z,10.33
2023-03-27T21:33:39.205Z,10.03
2023-03-27T21:36:06.744Z,10.63
2023-03-27T21:38:33.622Z,11.00
2023-03-27T21:41:02.318Z,10.10
2023-03-27T21:43:29.772Z,9.70
2023-03-27T21:45:58.891Z,9.70
2023-03-27T21:48:25.946Z,9.60
2023-03-27T21:50:52.580Z,10.20
2023-03-27T21:53:19.341Z,9.67
2023-03-27T21:55:46.941Z,10.40
2023-03-27T21:58:13.542Z,10.10
2023-03-27T22:00:40.824Z,9.30
2023-03-27T22:03:07.425Z,9.03
2023-03-27T22:05:37.665Z,8.70
2023-03-27T22:08:05.438Z,9.20
2023-03-27T22:10:34.371Z,8.63
2023-03-27T22:13:01.772Z,8.70
2023-03-27T22:15:29.289Z,7.70
2023-03-27T22:17:56.264Z,9.97
2023-03-27T22:20:23.565Z,7.30
2023-03-27T22:22:50.527Z,7.73
2023-03-27T22:25:17.284Z,7.13
2023-03-27T22:27:44.023Z,8.20
2023-03-27T22:30:11.052Z,7.63
2023-03-27T22:32:37.821Z,7.53
2023-03-27T22:35:04.756Z,7.20
2023-03-27T22:37:31.359Z,6.97
2023-03-27T22:39:57.962Z,6.57
2023-03-27T22:42:24.963Z,7.33
2023-03-27T22:44:51.551Z,6.60
2023-03-27T22:47:18.163Z,5.90
2023-03-27T22:49:44.759Z,5.73
2023-03-27T22:52:11.432Z,5.80
2023-03-27T22:54:38.073Z,6.43
2023-03-27T22:57:04.786Z,6.53
2023-03-27T22:59:31.436Z,5.77
2023-03-27T23:01:58.157Z,6.00
2023-03-27T23:04:25.015Z,6.10
2023-03-27T23:06:52.018Z,6.27
2023-03-27T23:09:18.623Z,7.07
2023-03-27T23:11:47.019Z,6.73
2023-03-27T23:14:14.010Z,6.03
2023-03-27T23:16:40.768Z,6.10
2023-03-27T23:19:07.424Z,6.17
2023-03-27T23:21:34.013Z,6.70
2023-03-27T23:24:01.024Z,6.63
2023-03-27T23:26:27.697Z,6.70
2023-03-27T23:28:54.350Z,6.37
2023-03-27T23:31:21.085Z,5.87
2023-03-27T23:33:50.437Z,6.67
2023-03-27T23:36:22.509Z,5.37
2023-03-27T23:38:51.497Z,5.70
2023-03-27T23:41:19.002Z,6.13
2023-03-27T23:43:45.969Z,5.50
2023-03-27T23:46:13.313Z,5.07
2023-03-27T23:48:42.336Z,6.57
2023-03-27T23:51:10.608Z,6.43
2023-03-27T23:53:37.373Z,5.53
2023-03-27T23:56:04.497Z,5.47
2023-03-27T23:58:34.582Z,5.20
